createdAt,value
2022-08-08T00:01:08.582Z,2.60
2022-08-08T00:04:49.121Z,3.10
2022-08-08T00:08:24.426Z,2.83
2022-08-08T00:12:07.766Z,2.40
2022-08-08T00:15:56.978Z,2.63
2022-08-08T00:19:31.066Z,3.07
2022-08-08T00:23:06.231Z,2.87
2022-08-08T00:26:37.645Z,2.80
2022-08-08T00:30:07.770Z,2.90
2022-08-08T00:34:18.497Z,2.23
2022-08-08T00:38:01.350Z,2.47
2022-08-08T00:42:08.287Z,2.67
2022-08-08T00:46:02.205Z,2.97
2022-08-08T00:50:16.468Z,3.20
2022-08-08T00:54:15.420Z,2.40
2022-08-08T00:58:31.796Z,2.37
2022-08-08T01:03:57.291Z,2.90
2022-08-08T01:06:44.396Z,2.87
2022-08-08T01:10:59.730Z,2.73
2022-08-08T01:15:06.892Z,2.33
2022-08-08T01:19:13.541Z,2.10
2022-08-08T01:23:07.285Z,2.13
2022-08-08T01:27:32.966Z,2.60
2022-08-08T01:32:06.751Z,2.43
2022-08-08T01:36:10.212Z,2.80
2022-08-08T01:40:03.006Z,2.00
2022-08-08T01:43:39.127Z,2.77
2022-08-08T01:48:14.771Z,2.53
2022-08-08T01:52:28.086Z,3.10
2022-08-08T01:56:28.392Z,2.63
2022-08-08T02:00:01.761Z,2.50
2022-08-08T02:04:15.065Z,2.33
2022-08-08T02:08:06.961Z,2.57
2022-08-08T02:11:58.857Z,2.83
2022-08-08T02:15:40.715Z,3.00
2022-08-08T02:19:26.950Z,3.10
2022-08-08T02:23:18.445Z,2.87
2022-08-08T02:26:52.338Z,2.90
2022-08-08T02:30:32.934Z,2.93
2022-08-08T02:34:15.113Z,2.73
2022-08-08T02:38:30.232Z,3.20
2022-08-08T02:42:47.526Z,2.50
2022-08-08T02:46:50.657Z,3.50
2022-08-08T02:51:07.101Z,3.20
2022-08-08T02:55:03.939Z,2.83
2022-08-08T02:59:57.498Z,3.10
2022-08-08T03:05:03.296Z,2.80
2022-08-08T03:08:40.864Z,3.90
2022-08-08T03:13:02.247Z,3.13
2022-08-08T03:16:43.813Z,3.27
2022-08-08T03:20:16.084Z,3.07
2022-08-08T03:23:57.540Z,3.43
2022-08-08T03:27:35.840Z,3.20
2022-08-08T03:31:24.876Z,3.07
2022-08-08T03:34:55.549Z,3.03
2022-08-08T03:38:56.191Z,3.23
2022-08-08T03:42:30.319Z,2.90
2022-08-08T03:46:07.443Z,3.43
2022-08-08T03:50:00.689Z,2.90
2022-08-08T03:53:42.399Z,3.30
2022-08-08T03:58:29.878Z,3.20
2022-08-08T04:01:23.080Z,2.80
2022-08-08T04:04:56.406Z,3.50
2022-08-08T04:08:33.258Z,2.90
2022-08-08T04:12:03.694Z,3.53
2022-08-08T04:15:54.798Z,3.10
2022-08-08T04:19:25.894Z,3.33
2022-08-08T04:22:59.319Z,3.97
2022-08-08T04:26:40.027Z,3.87
2022-08-08T04:30:17.791Z,3.50
2022-08-08T04:33:47.079Z,3.13
2022-08-08T04:37:13.849Z,3.30
2022-08-08T04:40:51.726Z,3.93
2022-08-08T04:44:20.686Z,4.17
2022-08-08T04:47:47.186Z,3.53
2022-08-08T04:51:27.950Z,3.90
2022-08-08T04:55:04.531Z,3.60
2022-08-08T04:58:33.176Z,3.63
2022-08-08T05:01:59.490Z,3.23
2022-08-08T05:05:44.653Z,3.70
2022-08-08T05:09:23.394Z,4.40
2022-08-08T05:13:00.233Z,3.90
2022-08-08T05:16:52.613Z,3.83
2022-08-08T05:20:40.410Z,3.50
2022-08-08T05:24:22.774Z,4.10
2022-08-08T05:27:54.759Z,3.80
2022-08-08T05:32:05.410Z,3.93
2022-08-08T05:35:14.594Z,3.57
2022-08-08T05:38:49.202Z,3.70
2022-08-08T05:42:20.464Z,4.50
2022-08-08T05:45:53.104Z,3.77
2022-08-08T05:49:22.260Z,3.33
2022-08-08T05:52:56.965Z,3.40
2022-08-08T05:56:47.140Z,3.97
2022-08-08T06:00:25.286Z,4.13
2022-08-08T06:04:08.468Z,4.70
2022-08-08T06:07:52.061Z,4.40
2022-08-08T06:11:40.871Z,4.70
2022-08-08T06:15:16.307Z,4.20
2022-08-08T06:18:47.547Z,4.27
2022-08-08T06:22:35.445Z,4.93
2022-08-08T06:26:38.268Z,3.57
2022-08-08T06:30:07.395Z,5.33
2022-08-08T06:34:25.528Z,5.17
2022-08-08T06:37:55.787Z,5.63
2022-08-08T06:41:32.370Z,5.40
2022-08-08T06:45:01.533Z,4.70
2022-08-08T06:48:40.226Z,4.60
2022-08-08T06:52:15.909Z,4.67
2022-08-08T06:55:47.353Z,4.50
2022-08-08T07:08:04.516Z,4.43
2022-08-08T07:11:50.888Z,4.53
2022-08-08T07:15:32.775Z,4.87
2022-08-08T07:19:11.418Z,4.13
2022-08-08T07:22:59.338Z,4.60
2022-08-08T07:26:28.911Z,4.10
2022-08-08T07:30:05.752Z,4.37
2022-08-08T07:33:53.776Z,4.43
2022-08-08T07:37:24.113Z,4.53
2022-08-08T07:40:50.411Z,4.37
2022-08-08T07:44:37.506Z,4.10
2022-08-08T07:48:05.237Z,4.07
2022-08-08T07:51:53.459Z,3.47
2022-08-08T07:55:28.800Z,3.80
2022-08-08T07:58:56.916Z,4.43
2022-08-08T08:02:34.684Z,3.97
2022-08-08T08:06:04.090Z,4.30
2022-08-08T08:09:40.249Z,4.10
2022-08-08T08:13:25.856Z,3.87
2022-08-08T08:17:10.348Z,3.50
2022-08-08T08:20:41.420Z,4.20
2022-08-08T08:24:06.731Z,3.63
2022-08-08T08:27:35.140Z,3.77
2022-08-08T08:31:04.709Z,4.30
2022-08-08T08:34:32.573Z,4.17
2022-08-08T08:38:17.408Z,4.13
2022-08-08T08:41:48.656Z,3.50
2022-08-08T08:45:22.713Z,3.60
2022-08-08T08:48:52.366Z,2.77
2022-08-08T08:52:20.773Z,3.63
2022-08-08T08:55:49.456Z,3.20
2022-08-08T08:59:15.414Z,4.47
2022-08-08T09:02:52.824Z,3.90
2022-08-08T09:06:26.849Z,3.80
2022-08-08T09:09:58.265Z,3.70
2022-08-08T09:13:34.271Z,3.90
2022-08-08T09:17:09.801Z,3.90
2022-08-08T09:21:57.640Z,3.70
2022-08-08T09:24:24.850Z,3.90
2022-08-08T09:27:58.511Z,3.63
2022-08-08T09:44:18.970Z,3.73
2022-08-08T09:48:17.731Z,3.80
2022-08-08T09:56:12.508Z,3.10
2022-08-08T10:00:28.908Z,4.00
2022-08-08T10:03:41.672Z,3.60
2022-08-08T10:07:08.988Z,3.03
2022-08-08T10:10:41.680Z,4.03
2022-08-08T10:14:35.562Z,3.30
2022-08-08T10:18:25.863Z,3.63
2022-08-08T10:22:01.068Z,3.40
2022-08-08T10:25:56.130Z,3.70
2022-08-08T11:27:48.975Z,3.63
2022-08-08T11:40:12.910Z,3.13
2022-08-08T11:44:06.841Z,2.90
2022-08-08T12:03:37.155Z,3.23
2022-08-08T12:07:08.059Z,2.80
2022-08-08T12:31:53.739Z,2.90
2022-08-08T12:40:00.077Z,3.50
2022-08-08T12:51:58.657Z,3.17
2022-08-08T12:56:19.153Z,2.93
2022-08-08T13:40:41.088Z,2.83
2022-08-08T14:29:40.189Z,2.50
2022-08-08T14:41:55.212Z,2.40
2022-08-08T15:57:02.501Z,2.50
2022-08-08T16:13:07.455Z,2.77
2022-08-08T16:19:01.248Z,2.37
2022-08-08T16:55:00.527Z,2.47
2022-08-08T17:14:00.730Z,2.80
2022-08-08T17:22:39.138Z,2.60
2022-08-08T17:30:46.688Z,2.40
2022-08-08T17:34:54.770Z,2.70
2022-08-08T17:38:51.443Z,2.60
2022-08-08T17:42:36.549Z,2.37
2022-08-08T17:50:29.217Z,2.43
2022-08-08T17:54:38.599Z,2.73
2022-08-08T17:58:21.582Z,2.50
2022-08-08T18:02:04.361Z,2.43
2022-08-08T18:05:49.771Z,2.50
2022-08-08T18:09:25.066Z,2.47
2022-08-08T18:13:09.015Z,2.53
2022-08-08T18:16:52.633Z,2.43
2022-08-08T18:20:54.589Z,2.87
2022-08-08T18:24:37.475Z,2.97
2022-08-08T18:28:16.493Z,2.57
2022-08-08T18:31:54.767Z,2.37
2022-08-08T18:35:34.211Z,2.13
2022-08-08T18:39:16.598Z,2.60
2022-08-08T18:43:01.714Z,2.67
2022-08-08T18:46:59.485Z,2.90
2022-08-08T18:50:39.702Z,2.60
2022-08-08T18:54:29.776Z,3.20
2022-08-08T18:58:06.727Z,3.30
2022-08-08T19:02:28.816Z,2.87
2022-08-08T19:05:45.101Z,2.70
2022-08-08T19:09:14.923Z,2.50
2022-08-08T19:12:44.781Z,2.83
2022-08-08T19:16:23.453Z,2.87
2022-08-08T19:20:02.757Z,2.40
2022-08-08T19:23:35.506Z,2.27
2022-08-08T19:27:06.113Z,2.80
2022-08-08T19:30:38.903Z,2.10
2022-08-08T19:34:36.660Z,2.37
2022-08-08T19:38:07.104Z,2.27
2022-08-08T19:41:42.400Z,2.53
2022-08-08T19:45:10.275Z,2.40
2022-08-08T19:48:39.791Z,2.50
2022-08-08T19:52:10.480Z,2.57
2022-08-08T19:55:40.720Z,2.40
2022-08-08T19:59:22.361Z,1.90
2022-08-08T20:02:50.555Z,2.00
2022-08-08T20:06:20.635Z,1.90
2022-08-08T20:09:57.135Z,1.93
2022-08-08T20:14:13.310Z,1.93
2022-08-08T20:17:27.838Z,1.37
2022-08-08T20:21:02.349Z,2.20
2022-08-08T20:24:31.302Z,1.93
2022-08-08T20:28:07.230Z,2.30
2022-08-08T20:32:07.927Z,2.47
2022-08-08T20:35:58.982Z,2.40
2022-08-08T20:39:39.559Z,1.60
2022-08-08T20:43:23.197Z,1.53
2022-08-08T20:47:02.966Z,2.13
2022-08-08T20:50:34.349Z,2.17
2022-08-08T20:54:14.044Z,1.53
2022-08-08T20:57:47.782Z,1.73
2022-08-08T21:01:20.003Z,1.63
2022-08-08T21:04:50.207Z,1.70
2022-08-08T21:08:35.192Z,1.50
2022-08-08T21:12:07.348Z,1.57
2022-08-08T21:16:05.777Z,1.60
2022-08-08T21:19:22.834Z,1.27
2022-08-08T21:22:50.740Z,1.63
2022-08-08T21:26:27.283Z,1.27
2022-08-08T21:30:05.711Z,1.60
2022-08-08T21:33:42.399Z,1.57
2022-08-08T21:37:11.511Z,1.47
2022-08-08T21:40:54.807Z,1.40
2022-08-08T21:44:21.188Z,1.30
2022-08-08T21:48:05.363Z,1.47
2022-08-08T21:54:17.954Z,1.30
2022-08-08T21:55:23.942Z,1.57
2022-08-08T21:59:05.730Z,1.40
2022-08-08T22:02:34.889Z,1.40
2022-08-08T22:06:02.368Z,1.43
2022-08-08T22:09:40.954Z,1.73
2022-08-08T22:13:18.565Z,1.27
2022-08-08T22:16:44.045Z,1.80
2022-08-08T22:20:18.895Z,1.50
2022-08-08T22:23:52.264Z,1.40
2022-08-08T22:27:38.624Z,1.93
2022-08-08T22:31:04.864Z,1.23
2022-08-08T22:34:39.909Z,1.80
2022-08-08T22:38:04.524Z,1.47
2022-08-08T22:41:30.540Z,1.47
2022-08-08T22:44:56.851Z,1.43
2022-08-08T22:48:22.472Z,1.60
2022-08-08T22:51:49.976Z,1.37
2022-08-08T22:55:19.109Z,1.70
2022-08-08T22:58:51.255Z,1.60
2022-08-08T23:02:19.641Z,1.67
2022-08-08T23:05:49.921Z,1.50
2022-08-08T23:09:15.043Z,1.20
2022-08-08T23:12:41.545Z,1.50
2022-08-08T23:16:37.578Z,1.50
2022-08-08T23:19:54.046Z,1.43
2022-08-08T23:23:18.476Z,1.57
2022-08-08T23:26:43.112Z,1.27
2022-08-08T23:30:17.757Z,1.50
2022-08-08T23:34:16.611Z,1.40
2022-08-08T23:38:02.072Z,1.40
2022-08-08T23:41:24.529Z,1.27
2022-08-08T23:44:49.365Z,1.60
2022-08-08T23:49:02.870Z,1.47
2022-08-08T23:52:05.175Z,1.50
2022-08-08T23:55:32.017Z,1.50
2022-08-08T23:58:56.209Z,1.60
